Time;durP1;ratioP1;P1;durP2;ratioP2;P2;SDS_P1;SDS_P2;PMS_P1;PMS_P2;Temp;Humidity;BMP_temperature;BMP_pressure;BME280_temperature;BME280_humidity;BME280_pressure;Samples;Min_cycle;Max_cycle;Signal;HPM_P1;HPM_P2
2023/05/20 00:01:48;;;;;;;4.43;1.60;;;;;;;12.17;100.00;98590.25;4974002;28;20160;-63
2023/05/20 00:04:17;;;;;;;3.75;1.27;;;;;;;12.17;100.00;98589.47;4956031;28;20065;-61
2023/05/20 00:06:42;;;;;;;5.05;1.67;;;;;;;12.19;100.00;98583.09;4954550;28;20442;-61
2023/05/20 00:09:08;;;;;;;3.50;1.50;;;;;;;12.26;100.00;98576.28;4972208;28;20077;-61
2023/05/20 00:11:39;;;;;;;3.40;1.50;;;;;;;12.28;100.00;98573.53;4977015;28;20046;-61
2023/05/20 00:14:05;;;;;;;3.28;1.27;;;;;;;12.27;100.00;98571.91;4972166;28;20547;-62
2023/05/20 00:16:30;;;;;;;3.60;1.40;;;;;;;12.14;100.00;98545.44;4956936;28;20551;-61
2023/05/20 00:18:56;;;;;;;3.72;1.38;;;;;;;11.73;100.00;98492.13;4959588;28;20038;-62
2023/05/20 00:21:24;;;;;;;3.15;1.25;;;;;;;12.14;100.00;98561.09;4973110;28;20111;-60
2023/05/20 00:23:50;;;;;;;3.58;1.20;;;;;;;12.18;100.00;98565.84;4979166;28;20121;-62
2023/05/20 00:26:15;;;;;;;2.90;1.00;;;;;;;12.07;100.00;98563.50;4962891;28;20032;-61
2023/05/20 00:29:01;;;;;;;3.95;1.10;;;;;;;12.05;100.00;98568.88;4962795;28;20038;-60
2023/05/20 00:31:27;;;;;;;2.95;1.02;;;;;;;12.08;100.00;98565.13;4980915;28;20026;-60
2023/05/20 00:34:00;;;;;;;4.15;1.05;;;;;;;11.99;100.00;98572.13;4980415;28;20123;-61
2023/05/20 00:36:28;;;;;;;2.25;0.90;;;;;;;11.99;100.00;98572.13;4978121;28;20038;-62
2023/05/20 00:38:56;;;;;;;3.10;0.93;;;;;;;12.02;100.00;98571.78;4963236;28;20045;-61
2023/05/20 00:41:27;;;;;;;1.92;0.70;;;;;;;12.05;100.00;98566.28;4963924;28;20023;-61
2023/05/20 00:43:56;;;;;;;3.17;0.88;;;;;;;11.87;100.00;98529.03;4983115;28;20515;-64
2023/05/20 00:46:22;;;;;;;2.40;0.80;;;;;;;12.00;100.00;98552.06;4964032;28;20042;-61
2023/05/20 00:49:13;;;;;;;2.33;0.90;;;;;;;11.75;100.00;98528.44;4980896;28;20468;-61
2023/05/20 00:51:42;;;;;;;2.28;0.80;;;;;;;11.80;100.00;98531.41;4961996;28;20034;-61
2023/05/20 00:54:09;;;;;;;2.67;0.98;;;;;;;11.76;100.00;98524.06;4976247;28;20038;-62
2023/05/20 00:56:38;;;;;;;3.50;0.90;;;;;;;11.88;100.00;98547.09;4974293;28;20030;-61
2023/05/20 00:59:04;;;;;;;4.07;0.90;;;;;;;11.98;100.00;98554.03;4979886;28;20113;-61
2023/05/20 01:01:32;;;;;;;2.88;0.80;;;;;;;11.86;100.00;98554.22;4967072;28;20145;-60
2023/05/20 01:04:01;;;;;;;2.83;0.90;;;;;;;11.88;100.00;98549.72;4977065;28;20038;-61
2023/05/20 01:06:29;;;;;;;2.37;0.90;;;;;;;11.81;100.00;98537.44;4959658;28;20055;-63
2023/05/20 01:09:00;;;;;;;2.60;0.90;;;;;;;11.85;100.00;98536.97;4982161;28;20034;-61
2023/05/20 01:11:33;;;;;;;2.97;0.80;;;;;;;11.80;100.00;98538.41;4962073;28;20031;-62
2023/05/20 01:14:07;;;;;;;4.68;1.00;;;;;;;11.77;100.00;98539.53;4973952;28;20054;-61
2023/05/20 01:16:37;;;;;;;2.63;0.82;;;;;;;11.83;100.00;98545.94;4977048;28;20038;-61
2023/05/20 01:19:17;;;;;;;3.92;0.90;;;;;;;11.79;100.00;98549.81;4980418;28;20077;-61
2023/05/20 01:21:44;;;;;;;2.85;0.93;;;;;;;11.75;100.00;98541.47;4978928;28;20043;-61
2023/05/20 01:24:12;;;;;;;3.60;1.00;;;;;;;11.66;100.00;98534.59;4978741;28;20504;-62
2023/05/20 01:26:37;;;;;;;2.83;1.00;;;;;;;11.68;100.00;98538.69;4964845;28;20040;-62
2023/05/20 01:29:05;;;;;;;3.15;0.90;;;;;;;11.66;100.00;98543.22;4972664;28;20114;-61
2023/05/20 01:31:32;;;;;;;2.92;1.08;;;;;;;11.71;100.00;98542.75;4977128;28;20034;-61
2023/05/20 01:33:58;;;;;;;3.53;1.13;;;;;;;11.77;100.00;98549.13;4978502;28;20046;-63
2023/05/20 01:36:37;;;;;;;3.55;1.00;;;;;;;11.71;100.00;98532.34;4978002;28;20521;-63
2023/05/20 01:39:05;;;;;;;2.58;1.00;;;;;;;11.73;100.00;98531.19;4956813;28;20035;-62
2023/05/20 01:41:41;;;;;;;3.30;1.10;;;;;;;11.72;100.00;98528.78;4963584;28;21168;-62
2023/05/20 01:44:06;;;;;;;2.80;0.80;;;;;;;11.72;100.00;98532.19;4971213;28;20042;-61
2023/05/20 01:46:35;;;;;;;3.53;0.90;;;;;;;11.73;100.00;98531.19;4979370;28;20077;-61
2023/05/20 01:49:06;;;;;;;2.75;0.90;;;;;;;11.45;100.00;98488.09;4975622;28;20132;-61
2023/05/20 01:51:34;;;;;;;2.67;0.88;;;;;;;11.74;100.00;98521.63;4975585;28;20035;-62
2023/05/20 01:54:01;;;;;;;8.07;0.90;;;;;;;11.74;100.00;98522.44;4983741;28;20069;-63
2023/05/20 01:56:29;;;;;;;2.33;0.80;;;;;;;11.69;100.00;98510.84;4972357;28;20558;-62
2023/05/20 01:59:00;;;;;;;2.38;0.90;;;;;;;11.71;100.00;98506.28;4978127;28;20034;-61
2023/05/20 02:01:28;;;;;;;2.00;0.70;;;;;;;11.69;100.00;98506.44;4968896;28;20064;-61
2023/05/20 02:03:53;;;;;;;2.28;0.70;;;;;;;11.74;100.00;98501.59;4972181;28;20105;-62
2023/05/20 02:06:18;;;;;;;2.30;0.88;;;;;;;11.72;100.00;98498.31;4975939;28;20533;-61
2023/05/20 02:08:50;;;;;;;2.88;0.63;;;;;;;11.69;100.00;98495.22;4980519;28;20061;-62
2023/05/20 02:11:17;;;;;;;2.22;0.80;;;;;;;11.73;100.00;98499.94;4963118;28;20040;-61
2023/05/20 02:13:43;;;;;;;1.98;0.65;;;;;;;11.68;100.00;98486.59;4961831;28;20677;-61
2023/05/20 02:16:08;;;;;;;1.45;0.52;;;;;;;11.76;100.00;98487.63;4952868;28;20038;-63
2023/05/20 02:18:39;;;;;;;1.80;0.80;;;;;;;11.71;100.00;98475.84;4979603;28;20030;-63
2023/05/20 02:21:10;;;;;;;2.25;0.70;;;;;;;11.71;100.00;98481.06;4971337;28;20576;-61
2023/05/20 02:23:38;;;;;;;2.47;0.60;;;;;;;11.46;100.00;98432.44;4965717;28;20117;-63
2023/05/20 02:26:07;;;;;;;2.20;0.68;;;;;;;11.75;100.00;98478.97;4980909;28;20132;-60
2023/05/20 02:28:45;;;;;;;2.10;0.73;;;;;;;11.40;100.00;98415.63;4989717;28;20035;-60
2023/05/20 02:31:13;;;;;;;1.83;0.65;;;;;;;11.74;100.00;98465.13;4967017;28;20089;-61
2023/05/20 02:33:44;;;;;;;2.38;0.77;;;;;;;11.82;100.00;98472.16;4957273;28;20053;-62
2023/05/20 02:36:10;;;;;;;1.88;0.75;;;;;;;11.78;100.00;98470.03;4964257;28;20045;-61
2023/05/20 02:38:38;;;;;;;2.25;0.70;;;;;;;11.79;100.00;98467.28;4975721;28;20240;-62
2023/05/20 02:41:06;;;;;;;2.85;0.70;;;;;;;11.78;100.00;98462.22;4974790;28;20037;-61
2023/05/20 02:43:32;;;;;;;2.05;0.60;;;;;;;11.75;100.00;98458.13;4958163;28;20041;-61
2023/05/20 02:46:03;;;;;;;3.20;0.80;;;;;;;11.76;100.00;98459.75;4969861;28;20031;-61
2023/05/20 02:48:33;;;;;;;2.80;0.70;;;;;;;11.82;100.00;98464.34;4971161;28;20032;-61
2023/05/20 02:51:01;;;;;;;1.92;0.73;;;;;;;11.74;100.00;98459.91;4952565;28;20034;-60
2023/05/20 02:53:29;;;;;;;2.45;0.60;;;;;;;11.72;100.00;98455.84;4965041;28;20026;-61
2023/05/20 02:55:56;;;;;;;2.58;0.68;;;;;;;11.37;100.00;98412.53;4977684;28;20053;-60
2023/05/20 02:58:26;;;;;;;1.73;0.70;;;;;;;11.70;100.00;98452.56;4974161;28;20026;-60
2023/05/20 03:00:57;;;;;;;1.85;0.63;;;;;;;11.77;100.00;98460.56;4968078;28;20045;-60
2023/05/20 03:03:25;;;;;;;2.30;0.60;;;;;;;11.73;100.00;98453.06;4989199;28;20030;-61
2023/05/20 03:05:54;;;;;;;2.47;0.70;;;;;;;11.50;100.00;98407.72;4980208;28;20043;-61
2023/05/20 03:08:20;;;;;;;6.03;0.93;;;;;;;11.77;100.00;98455.38;4975338;28;20052;-61
2023/05/20 03:10:46;;;;;;;2.88;0.65;;;;;;;11.69;100.00;98453.53;4977925;28;20092;-62
2023/05/20 03:13:17;;;;;;;1.88;0.55;;;;;;;11.62;100.00;98439.50;4999760;28;20105;-61
2023/05/20 03:15:45;;;;;;;1.45;0.57;;;;;;;11.76;100.00;98451.16;4974514;28;20061;-60
2023/05/20 03:18:13;;;;;;;2.33;0.68;;;;;;;11.49;100.00;98401.69;4974308;28;20027;-61
2023/05/20 03:20:42;;;;;;;2.17;0.75;;;;;;;11.74;100.00;98444.28;4983044;28;20042;-61
2023/05/20 03:23:15;;;;;;;2.10;0.60;;;;;;;11.71;100.00;98446.38;4962544;28;20159;-60
2023/05/20 03:25:46;;;;;;;1.95;0.60;;;;;;;11.72;100.00;98432.41;4973264;28;20034;-61
2023/05/20 03:28:11;;;;;;;1.42;0.55;;;;;;;11.74;100.00;98444.28;4972336;28;20038;-61
2023/05/20 03:30:40;;;;;;;1.38;0.60;;;;;;;11.70;100.00;98442.97;4980676;28;20034;-61
2023/05/20 03:33:06;;;;;;;2.53;0.65;;;;;;;11.76;100.00;98446.75;4969725;28;20146;-60
2023/05/20 03:35:34;;;;;;;1.98;0.57;;;;;;;11.71;100.00;98433.38;4981440;28;20026;-62
2023/05/20 03:38:00;;;;;;;2.40;0.68;;;;;;;11.76;100.00;98435.50;4980737;28;20102;-61
2023/05/20 03:40:29;;;;;;;1.83;0.63;;;;;;;11.77;100.00;98450.16;4979342;28;20033;-62
2023/05/20 03:42:57;;;;;;;3.47;0.67;;;;;;;11.73;100.00;98429.63;4960159;28;20039;-61
2023/05/20 03:45:23;;;;;;;2.28;0.50;;;;;;;11.80;100.00;98435.03;4980005;28;20266;-62
2023/05/20 03:47:54;;;;;;;1.58;0.60;;;;;;;11.82;100.00;98427.06;4975298;28;20083;-61
2023/05/20 03:50:19;;;;;;;3.35;0.75;;;;;;;11.54;100.00;98385.63;4979046;28;20089;-61
2023/05/20 03:52:45;;;;;;;2.00;0.60;;;;;;;11.80;100.00;98421.19;4973040;28;20621;-61
2023/05/20 03:55:10;;;;;;;2.50;0.80;;;;;;;11.92;100.00;98427.78;4962109;28;20037;-61
2023/05/20 03:57:38;;;;;;;2.45;0.70;;;;;;;11.65;100.00;98392.34;4963634;28;20133;-61
2023/05/20 04:00:10;;;;;;;1.80;0.60;;;;;;;11.83;100.00;98426.91;4977713;28;20580;-61
2023/05/20 04:02:37;;;;;;;2.78;0.50;;;;;;;11.91;100.00;98437.38;4980222;28;20595;-62
2023/05/20 04:05:03;;;;;;;1.85;0.60;;;;;;;11.58;100.00;98386.94;4974925;28;20030;-61
2023/05/20 04:07:28;;;;;;;2.05;0.68;;;;;;;11.80;100.00;98427.22;4960204;28;20027;-60
2023/05/20 04:09:54;;;;;;;1.35;0.50;;;;;;;11.81;100.00;98417.59;4973468;28;20125;-62
2023/05/20 04:12:24;;;;;;;2.50;0.40;;;;;;;11.84;100.00;98428.53;4989671;28;20026;-61
2023/05/20 04:14:51;;;;;;;1.67;0.60;;;;;;;11.82;100.00;98434.88;4980836;28;20081;-61
2023/05/20 04:17:16;;;;;;;1.63;0.50;;;;;;;11.77;100.00;98429.31;4960652;28;20038;-61
2023/05/20 04:19:47;;;;;;;1.80;0.60;;;;;;;11.75;100.00;98429.47;4968053;28;20351;-61
2023/05/20 04:22:18;;;;;;;1.63;0.55;;;;;;;11.67;100.00;98426.84;4980054;28;20107;-62
2023/05/20 04:24:49;;;;;;;1.80;0.52;;;;;;;11.76;100.00;98435.50;4976965;28;20054;-61
2023/05/20 04:27:17;;;;;;;2.08;0.60;;;;;;;11.74;100.00;98433.06;4977085;28;20475;-61
2023/05/20 04:29:45;;;;;;;0.93;0.40;;;;;;;11.71;100.00;98422.94;4977930;28;20057;-60
2023/05/20 04:32:25;;;;;;;2.40;0.60;;;;;;;11.52;100.00;98393.56;4978515;28;20034;-61
2023/05/20 04:35:00;;;;;;;3.10;0.70;;;;;;;11.48;100.00;98376.63;4982800;28;20167;-62
2023/05/20 04:37:26;;;;;;;1.90;0.57;;;;;;;11.73;100.00;98427.00;4974340;28;20452;-61
2023/05/20 04:39:52;;;;;;;1.67;0.60;;;;;;;11.51;100.00;98381.50;4976320;28;20031;-61
2023/05/20 04:42:18;;;;;;;1.20;0.50;;;;;;;11.78;100.00;98420.53;4965163;28;20039;-61
2023/05/20 04:44:46;;;;;;;1.65;0.50;;;;;;;11.54;100.00;98388.22;4979190;28;20038;-61
2023/05/20 04:47:15;;;;;;;1.45;0.43;;;;;;;11.77;100.00;98424.09;4975703;28;20042;-60
2023/05/20 04:49:41;;;;;;;2.03;0.60;;;;;;;11.78;100.00;98423.16;4964107;28;20050;-61
2023/05/20 04:52:12;;;;;;;1.67;0.43;;;;;;;11.81;100.00;98423.66;4976703;28;20031;-61
2023/05/20 04:54:42;;;;;;;1.70;0.55;;;;;;;11.84;100.00;98409.47;4964004;28;20038;-61
2023/05/20 04:57:11;;;;;;;1.52;0.50;;;;;;;11.81;100.00;98409.78;4971723;28;20082;-60
2023/05/20 04:59:36;;;;;;;2.67;0.68;;;;;;;11.69;100.00;98384.03;4977750;28;20038;-61
2023/05/20 05:02:07;;;;;;;2.25;0.50;;;;;;;11.91;100.00;98415.72;4974509;28;20055;-61
2023/05/20 05:04:33;;;;;;;2.88;0.60;;;;;;;11.88;100.00;98410.78;4976310;28;20687;-61
2023/05/20 05:07:04;;;;;;;0.93;0.47;;;;;;;11.96;100.00;98420.47;4961711;28;20031;-61
2023/05/20 05:09:38;;;;;;;2.03;0.60;;;;;;;11.92;100.00;98417.38;4975102;28;20026;-61
2023/05/20 05:12:06;;;;;;;1.42;0.50;;;;;;;11.85;100.00;98413.72;4975406;28;20060;-61
2023/05/20 05:14:35;;;;;;;1.95;0.60;;;;;;;11.92;100.00;98412.97;4975799;28;20058;-61
2023/05/20 05:17:03;;;;;;;1.52;0.50;;;;;;;11.95;100.00;98411.81;4955947;28;20031;-61
2023/05/20 05:19:34;;;;;;;1.65;0.57;;;;;;;11.96;100.00;98410.88;4973655;28;20120;-62
2023/05/20 05:22:00;;;;;;;4.03;0.50;;;;;;;11.98;100.00;98408.09;4982992;28;20036;-61
2023/05/20 05:24:25;;;;;;;1.98;0.60;;;;;;;11.78;100.00;98376.25;4964981;28;20034;-62
2023/05/20 05:26:54;;;;;;;1.40;0.50;;;;;;;11.81;100.00;98366.34;4981005;28;20046;-61
2023/05/20 05:29:26;;;;;;;2.05;0.60;;;;;;;11.80;100.00;98356.88;4976927;28;20041;-61
2023/05/20 05:31:55;;;;;;;2.03;0.52;;;;;;;11.68;100.00;98348.56;4964822;28;20023;-61
2023/05/20 05:34:22;;;;;;;1.50;0.60;;;;;;;11.99;100.00;98389.72;4984397;28;20049;-62
2023/05/20 05:36:47;;;;;;;2.47;0.77;;;;;;;11.92;100.00;98380.91;4971608;28;20789;-61
2023/05/20 05:39:13;;;;;;;1.88;0.60;;;;;;;11.93;100.00;98390.31;4983194;28;20041;-61
2023/05/20 05:41:38;;;;;;;1.98;0.60;;;;;;;11.91;100.00;98390.47;4961696;28;20034;-61
2023/05/20 05:44:04;;;;;;;1.40;0.55;;;;;;;11.59;100.00;98341.69;4969484;28;20082;-61
2023/05/20 05:46:32;;;;;;;1.55;0.70;;;;;;;11.77;100.00;98366.81;4963734;28;20038;-60
2023/05/20 05:49:00;;;;;;;1.58;0.55;;;;;;;11.85;100.00;98377.25;4964757;28;20035;-61
2023/05/20 05:51:31;;;;;;;1.50;0.60;;;;;;;11.55;100.00;98329.94;4972445;28;20113;-61
2023/05/20 05:53:57;;;;;;;2.88;0.60;;;;;;;11.80;100.00;98369.09;4974278;28;20085;-62
2023/05/20 05:56:22;;;;;;;3.38;0.70;;;;;;;11.55;100.00;98329.94;4975187;28;20038;-62
2023/05/20 05:58:48;;;;;;;2.47;0.60;;;;;;;11.53;100.00;98324.06;4959839;28;20041;-61
2023/05/20 06:01:13;;;;;;;2.90;0.73;;;;;;;11.48;100.00;98328.94;4974673;28;20043;-62
2023/05/20 06:03:48;;;;;;;1.88;0.60;;;;;;;11.44;100.00;98317.22;4974179;28;20097;-61
2023/05/20 06:06:15;;;;;;;1.55;0.57;;;;;;;11.82;100.00;98369.75;4990610;28;20092;-62
2023/05/20 06:08:41;;;;;;;2.05;0.60;;;;;;;11.94;100.00;98376.34;4970929;28;20113;-61
2023/05/20 06:11:09;;;;;;;1.95;0.60;;;;;;;11.96;100.00;98379.59;4960972;28;20033;-62
2023/05/20 06:13:37;;;;;;;1.38;0.50;;;;;;;11.67;100.00;98338.28;4978852;28;20037;-61
2023/05/20 06:16:05;;;;;;;1.38;0.57;;;;;;;11.96;100.00;98371.78;4975922;28;20023;-61
2023/05/20 06:18:35;;;;;;;2.90;0.65;;;;;;;11.60;100.00;98319.88;4979907;28;20752;-61
2023/05/20 06:21:04;;;;;;;2.33;0.60;;;;;;;11.92;100.00;98363.47;4977293;28;20082;-62
2023/05/20 06:23:32;;;;;;;2.83;1.23;;;;;;;11.99;100.00;98368.88;4964270;28;20037;-62
2023/05/20 06:26:04;;;;;;;1.52;0.60;;;;;;;11.96;100.00;98363.16;4965894;28;20041;-62
2023/05/20 06:28:29;;;;;;;2.03;0.60;;;;;;;11.98;100.00;98353.38;4976140;28;20041;-61
2023/05/20 06:30:57;;;;;;;4.13;0.60;;;;;;;12.05;100.00;98363.00;4970818;28;20031;-61
2023/05/20 06:33:33;;;;;;;1.73;0.57;;;;;;;12.10;100.00;98368.56;4972320;28;20081;-61
2023/05/20 06:36:00;;;;;;;1.58;0.55;;;;;;;12.12;100.00;98376.22;4973682;28;20046;-61
2023/05/20 06:38:30;;;;;;;1.63;0.52;;;;;;;12.11;100.00;98357.13;4976406;28;20034;-61
2023/05/20 06:40:55;;;;;;;1.48;0.45;;;;;;;11.93;100.00;98327.78;4978429;28;20033;-62
2023/05/20 06:43:24;;;;;;;1.75;0.65;;;;;;;12.16;100.00;98358.47;4973058;28;20415;-62
2023/05/20 06:45:49;;;;;;;1.20;0.60;;;;;;;12.13;100.00;98354.38;4978975;28;20094;-62
2023/05/20 06:48:17;;;;;;;3.22;0.60;;;;;;;12.10;100.00;98349.47;4974394;28;20891;-62
2023/05/20 06:50:50;;;;;;;2.03;0.60;;;;;;;12.03;100.00;98336.28;4972682;28;20137;-61
2023/05/20 06:53:15;;;;;;;3.10;0.85;;;;;;;12.25;100.00;98371.34;4989544;28;20046;-61
2023/05/20 06:55:41;;;;;;;1.27;0.50;;;;;;;12.18;100.00;98349.50;4964945;28;20030;-61
2023/05/20 06:58:13;;;;;;;2.03;0.52;;;;;;;12.30;100.00;98365.63;4991234;28;20197;-62
2023/05/20 07:00:41;;;;;;;1.52;0.60;;;;;;;12.25;100.00;98365.31;4992250;28;20150;-61
2023/05/20 07:03:10;;;;;;;2.33;0.50;;;;;;;12.34;100.00;98372.19;4976853;28;20039;-62
2023/05/20 07:05:38;;;;;;;1.98;0.55;;;;;;;12.34;100.00;98377.38;4974692;28;20035;-62
2023/05/20 07:08:07;;;;;;;2.05;0.70;;;;;;;12.39;100.00;98374.28;4955202;28;20240;-61
2023/05/20 07:10:34;;;;;;;1.52;0.52;;;;;;;12.37;100.00;98368.41;4960207;28;20042;-61
2023/05/20 07:13:03;;;;;;;2.60;0.52;;;;;;;12.40;100.00;98376.72;4969251;28;20042;-62
2023/05/20 07:15:31;;;;;;;1.35;0.47;;;;;;;12.18;100.00;98331.25;4973433;28;20096;-61
2023/05/20 07:17:59;;;;;;;1.45;0.50;;;;;;;12.47;100.00;98376.91;4977163;28;20045;-62
2023/05/20 07:20:27;;;;;;;1.30;0.50;;;;;;;12.46;100.00;98375.25;4970950;28;20030;-61
2023/05/20 07:22:55;;;;;;;3.42;0.70;;;;;;;12.46;100.00;98383.91;4959474;28;20029;-62
2023/05/20 07:25:31;;;;;;;1.60;0.52;;;;;;;12.37;100.00;98364.00;4976529;28;20029;-62
2023/05/20 07:27:59;;;;;;;2.38;0.70;;;;;;;12.48;100.00;98368.09;4971442;28;21266;-62
2023/05/20 07:30:33;;;;;;;3.20;0.63;;;;;;;12.40;100.00;98365.50;4973156;28;20026;-62
2023/05/20 07:33:01;;;;;;;2.22;0.70;;;;;;;12.33;100.00;98354.88;4977621;28;20065;-62
2023/05/20 07:35:27;;;;;;;2.15;0.73;;;;;;;12.40;100.00;98368.91;4967584;28;20081;-63
2023/05/20 07:37:54;;;;;;;2.03;0.80;;;;;;;12.43;100.00;98360.78;4956582;28;20700;-62
2023/05/20 07:40:22;;;;;;;3.53;0.98;;;;;;;12.39;100.00;98362.06;4963677;28;20787;-62
2023/05/20 07:42:51;;;;;;;4.00;1.30;;;;;;;12.46;100.00;98360.44;4939300;28;20863;-62
2023/05/20 07:45:19;;;;;;;4.70;1.25;;;;;;;12.46;100.00;98357.81;4948839;28;20125;-61
2023/05/20 07:47:45;;;;;;;4.65;1.50;;;;;;;12.56;100.00;98372.50;4944966;28;20074;-61
2023/05/20 07:50:10;;;;;;;2.88;1.00;;;;;;;12.54;100.00;98374.44;4936290;28;20704;-62
2023/05/20 07:52:41;;;;;;;2.60;1.00;;;;;;;12.54;100.00;98361.41;4955710;28;20424;-63
2023/05/20 07:55:07;;;;;;;3.05;1.02;;;;;;;12.62;100.00;98367.44;4965493;28;20457;-61
2023/05/20 07:57:35;;;;;;;3.08;0.80;;;;;;;12.60;100.00;98358.97;4961689;28;20049;-61
2023/05/20 08:00:05;;;;;;;2.20;0.60;;;;;;;12.45;100.00;98321.50;4960045;28;20048;-61
2023/05/20 08:02:33;;;;;;;2.72;0.75;;;;;;;12.34;100.00;98304.38;4956171;28;20038;-61
2023/05/20 08:05:04;;;;;;;2.28;0.65;;;;;;;12.62;100.00;98353.59;4928616;28;20023;-62
2023/05/20 08:07:37;;;;;;;1.85;0.68;;;;;;;12.70;100.00;98356.19;4956652;28;20034;-61
2023/05/20 08:10:03;;;;;;;1.73;0.60;;;;;;;12.69;100.00;98346.75;4955628;28;20070;-61
2023/05/20 08:12:34;;;;;;;2.85;0.70;;;;;;;12.73;100.00;98350.66;4956558;28;20049;-62
2023/05/20 08:15:08;;;;;;;2.22;0.80;;;;;;;12.63;100.00;98331.72;4950789;28;20039;-61
2023/05/20 08:17:37;;;;;;;2.75;0.90;;;;;;;12.79;100.00;98351.78;4961962;28;20036;-61
2023/05/20 08:20:07;;;;;;;2.47;0.80;;;;;;;12.82;100.00;98354.06;4962322;28;20040;-62
2023/05/20 08:22:32;;;;;;;3.10;1.08;;;;;;;12.88;100.00;98351.59;4955783;28;20034;-61
2023/05/20 08:25:10;;;;;;;2.10;0.80;;;;;;;12.85;100.00;98348.50;4950996;28;20058;-61
2023/05/20 08:27:36;;;;;;;4.35;1.00;;;;;;;12.94;100.00;98365.81;4966813;28;20038;-61
2023/05/20 08:30:02;;;;;;;3.40;0.77;;;;;;;12.99;100.00;98353.03;4959550;28;20625;-61
2023/05/20 08:32:28;;;;;;;5.20;1.20;;;;;;;13.01;100.00;98358.09;4958478;28;20023;-61
2023/05/20 08:35:00;;;;;;;3.17;1.05;;;;;;;13.03;100.00;98353.53;4942517;28;20488;-59
2023/05/20 08:37:31;;;;;;;3.55;1.20;;;;;;;13.11;100.00;98363.97;4979071;28;20038;-61
2023/05/20 08:39:56;;;;;;;2.67;0.90;;;;;;;12.86;100.00;98311.81;4949828;28;20031;-61
2023/05/20 08:42:25;;;;;;;2.78;0.90;;;;;;;13.17;100.00;98350.22;4948818;28;20117;-61
2023/05/20 08:44:57;;;;;;;4.17;1.33;;;;;;;13.22;100.00;98353.16;4951326;28;20137;-61
2023/05/20 08:47:22;;;;;;;3.10;1.10;;;;;;;13.10;100.00;98317.13;4946399;28;20026;-61
2023/05/20 08:49:48;;;;;;;4.30;1.27;;;;;;;13.35;100.00;98347.44;4958203;28;20700;-62
2023/05/20 08:52:18;;;;;;;2.55;0.80;;;;;;;13.28;100.00;98347.25;4951858;28;20043;-62
2023/05/20 08:54:48;;;;;;;4.05;1.20;;;;;;;13.38;100.00;98364.56;4958231;28;20417;-60
2023/05/20 08:57:13;;;;;;;2.92;0.90;;;;;;;13.14;100.00;98321.03;4959282;28;20204;-61
2023/05/20 08:59:43;;;;;;;3.35;1.00;;;;;;;13.40;100.00;98355.59;4965463;28;20888;-61
2023/05/20 09:02:10;;;;;;;1.90;0.70;;;;;;;13.51;100.00;98348.34;4966625;28;20031;-61
2023/05/20 09:04:38;;;;;;;2.03;0.70;;;;;;;13.44;100.00;98343.81;4964750;28;20903;-60
2023/05/20 09:07:09;;;;;;;3.08;1.33;;;;;;;13.50;100.00;98357.19;4968817;28;20061;-61
2023/05/20 09:09:37;;;;;;;4.50;1.10;;;;;;;13.54;100.00;98346.22;4967170;28;20042;-61
2023/05/20 09:12:20;;;;;;;4.78;0.90;;;;;;;13.54;100.00;98346.22;4936248;28;20326;-60
2023/05/20 09:14:50;;;;;;;2.10;0.80;;;;;;;13.50;100.00;98349.34;4965505;28;20034;-61
2023/05/20 09:17:20;;;;;;;4.05;1.60;;;;;;;13.30;100.00;98326.19;4966738;28;20038;-61
2023/05/20 09:19:54;;;;;;;3.25;1.10;;;;;;;13.59;100.00;98364.00;4959940;28;20556;-60
2023/05/20 09:22:27;;;;;;;3.58;1.08;;;;;;;13.51;100.00;98348.34;4963076;28;20030;-61
2023/05/20 09:24:56;;;;;;;3.25;0.70;;;;;;;13.67;100.00;98369.16;4968454;28;20105;-61
2023/05/20 09:27:23;;;;;;;3.20;0.77;;;;;;;13.60;100.00;98379.50;4963388;28;20034;-61
2023/05/20 09:30:00;;;;;;;2.67;0.90;;;;;;;13.68;100.00;98372.63;4958433;28;20030;-60
2023/05/20 09:32:27;;;;;;;3.78;0.90;;;;;;;13.68;100.00;98385.69;4964771;28;21007;-60
2023/05/20 09:35:05;;;;;;;2.03;0.73;;;;;;;13.75;100.00;98387.44;4960794;28;20070;-60
2023/05/20 09:37:33;;;;;;;2.15;0.63;;;;;;;13.75;100.00;98378.78;4975803;28;20064;-60
2023/05/20 09:40:05;;;;;;;2.97;0.80;;;;;;;13.88;100.00;98383.47;4959777;28;20539;-60
2023/05/20 09:42:40;;;;;;;2.92;1.00;;;;;;;13.85;100.00;98387.22;4953208;28;20038;-60
2023/05/20 09:45:08;;;;;;;3.05;0.63;;;;;;;13.82;100.00;98384.97;4986691;28;20064;-60
2023/05/20 09:47:39;;;;;;;3.35;0.80;;;;;;;13.93;100.00;98389.81;4963084;28;20093;-60
2023/05/20 09:50:16;;;;;;;1.58;0.60;;;;;;;13.69;100.00;98356.78;4959761;28;20035;-60
2023/05/20 09:52:42;;;;;;;2.08;0.60;;;;;;;13.98;100.00;98392.72;4969518;28;20563;-60
2023/05/20 09:55:11;;;;;;;1.70;0.63;;;;;;;14.03;100.00;98400.84;4957129;28;20065;-60
2023/05/20 09:57:39;;;;;;;1.67;0.60;;;;;;;13.78;100.00;98363.59;4962988;28;20034;-61
2023/05/20 10:00:12;;;;;;;3.10;0.90;;;;;;;14.09;100.00;98406.38;4968999;28;20045;-60
2023/05/20 10:02:51;;;;;;;2.45;0.80;;;;;;;14.20;100.00;98409.44;4947967;28;20023;-60
2023/05/20 10:05:24;;;;;;;1.63;0.50;;;;;;;14.33;100.00;98416.69;4962742;28;20030;-60
2023/05/20 10:08:02;;;;;;;2.35;0.80;;;;;;;14.36;100.00;98418.13;4949920;28;20045;-59
2023/05/20 10:10:47;;;;;;;1.73;0.52;;;;;;;14.08;100.00;98373.38;4957035;28;20153;-60
2023/05/20 10:13:30;;;;;;;1.40;0.52;;;;;;;14.32;100.00;98425.53;4957832;28;20034;-60
2023/05/20 10:16:41;;;;;;;1.55;0.60;;;;;;;14.29;100.00;98410.19;4926160;28;20445;-61
2023/05/20 10:19:13;;;;;;;2.08;0.60;;;;;;;14.38;100.00;98422.22;4935034;28;20053;-61
2023/05/20 10:21:58;;;;;;;1.27;0.50;;;;;;;14.32;100.00;98417.66;4944159;28;20035;-61
2023/05/20 10:24:33;;;;;;;1.52;0.60;;;;;;;14.23;100.00;98405.63;4902984;28;20128;-62
2023/05/20 10:27:01;;;;;;;2.40;0.70;;;;;;;14.02;100.00;98383.53;4963759;28;20034;-61
2023/05/20 10:29:42;;;;;;;1.35;0.50;;;;;;;14.01;100.00;98407.25;4961426;28;20917;-61
2023/05/20 10:32:10;;;;;;;1.63;0.60;;;;;;;14.03;100.00;98411.28;4935673;28;20210;-61
2023/05/20 10:34:57;;;;;;;1.83;0.70;;;;;;;14.07;100.00;98410.97;4948656;28;20049;-61
2023/05/20 10:38:05;;;;;;;4.05;0.70;;;;;;;14.08;100.00;98408.19;4939246;28;20046;-61
2023/05/20 10:40:35;;;;;;;2.15;0.70;;;;;;;14.06;100.00;98404.94;4940356;28;20044;-61
2023/05/20 10:43:20;;;;;;;1.98;0.70;;;;;;;14.03;100.00;98398.22;4963917;28;20168;-60
2023/05/20 10:45:53;;;;;;;2.38;0.70;;;;;;;13.95;100.00;98400.09;4968824;28;20027;-62
2023/05/20 10:48:29;;;;;;;1.50;0.50;;;;;;;13.87;100.00;98389.66;4960895;28;20076;-61
2023/05/20 10:51:10;;;;;;;2.08;0.60;;;;;;;13.82;100.00;98393.63;4970287;28;20089;-62
2023/05/20 10:53:40;;;;;;;2.70;0.88;;;;;;;13.90;100.00;98376.25;4963053;28;20034;-61
2023/05/20 10:56:17;;;;;;;5.07;0.90;;;;;;;14.01;100.00;98381.09;4950115;28;20350;-61
2023/05/20 10:58:54;;;;;;;1.73;0.60;;;;;;;13.75;100.00;98361.31;4958125;28;20119;-61
2023/05/20 11:01:25;;;;;;;2.42;0.80;;;;;;;13.88;100.00;98383.47;4970246;28;20037;-61
2023/05/20 11:03:54;;;;;;;3.22;0.70;;;;;;;13.64;100.00;98348.63;4952699;28;20033;-60
2023/05/20 11:06:31;;;;;;;2.35;0.88;;;;;;;13.76;100.00;98385.63;4974578;28;20033;-61
2023/05/20 11:09:10;;;;;;;2.78;0.90;;;;;;;13.64;100.00;98353.84;4960398;28;20049;-62
2023/05/20 11:11:43;;;;;;;3.22;0.68;;;;;;;13.81;100.00;98388.56;4988095;28;20125;-61
2023/05/20 11:14:12;;;;;;;3.22;1.10;;;;;;;13.82;100.00;98377.13;4967951;28;20047;-61
2023/05/20 11:16:38;;;;;;;1.27;0.50;;;;;;;13.72;100.00;98374.69;4971993;28;20122;-61
2023/05/20 11:19:13;;;;;;;2.83;0.80;;;;;;;13.76;100.00;98378.63;4961103;28;20150;-61
2023/05/20 11:21:43;;;;;;;2.42;0.80;;;;;;;13.75;100.00;98378.78;4957971;28;20117;-62
2023/05/20 11:24:20;;;;;;;1.88;0.70;;;;;;;13.72;100.00;98377.31;4958038;28;20037;-61
2023/05/20 11:27:01;;;;;;;2.42;0.80;;;;;;;13.49;100.00;98334.66;4971703;28;20056;-62
2023/05/20 11:29:35;;;;;;;2.97;0.90;;;;;;;13.73;100.00;98371.13;4963126;28;20027;-61
2023/05/20 11:32:19;;;;;;;1.58;0.60;;;;;;;13.70;100.00;98371.44;4966699;28;20572;-63
2023/05/20 11:34:44;;;;;;;2.28;0.70;;;;;;;13.74;100.00;98366.69;4969493;28;20885;-62
2023/05/20 11:37:14;;;;;;;2.45;0.75;;;;;;;13.66;100.00;98357.09;4966680;28;20074;-63